sensor_id;sensor_type;location;lat;lon;timestamp;P1;durP1;ratioP1;P2;durP2;ratioP2
35364;SDS011;21464;48.112;11.530;2023-02-15T00:00:35;16.43;;;13.47;;
35364;SDS011;21464;48.112;11.530;2023-02-15T00:03:02;27.83;;;12.77;;
35364;SDS011;21464;48.112;11.530;2023-02-15T00:05:29;15.70;;;13.60;;
35364;SDS011;21464;48.112;11.530;2023-02-15T00:07:56;15.63;;;12.50;;
35364;SDS011;21464;48.112;11.530;2023-02-15T00:10:22;16.53;;;13.07;;
35364;SDS011;21464;48.112;11.530;2023-02-15T00:12:49;18.43;;;13.37;;
35364;SDS011;21464;48.112;11.530;2023-02-15T00:15:15;22.80;;;12.37;;
35364;SDS011;21464;48.112;11.530;2023-02-15T00:17:41;16.13;;;13.43;;
35364;SDS011;21464;48.112;11.530;2023-02-15T00:20:08;15.23;;;12.23;;
35364;SDS011;21464;48.112;11.530;2023-02-15T00:22:34;21.37;;;12.87;;
35364;SDS011;21464;48.112;11.530;2023-02-15T00:25:01;19.43;;;13.17;;
35364;SDS011;21464;48.112;11.530;2023-02-15T00:27:27;23.87;;;12.83;;
35364;SDS011;21464;48.112;11.530;2023-02-15T00:29:53;17.50;;;12.50;;
35364;SDS011;21464;48.112;11.530;2023-02-15T00:32:19;17.33;;;12.90;;
35364;SDS011;21464;48.112;11.530;2023-02-15T00:34:46;15.10;;;12.40;;
35364;SDS011;21464;48.112;11.530;2023-02-15T00:37:12;16.13;;;12.60;;
35364;SDS011;21464;48.112;11.530;2023-02-15T00:39:39;20.00;;;13.20;;
35364;SDS011;21464;48.112;11.530;2023-02-15T00:42:05;16.33;;;12.60;;
35364;SDS011;21464;48.112;11.530;2023-02-15T00:44:31;24.10;;;13.23;;
35364;SDS011;21464;48.112;11.530;2023-02-15T00:46:57;16.00;;;13.73;;
35364;SDS011;21464;48.112;11.530;2023-02-15T00:49:24;17.57;;;13.17;;
35364;SDS011;21464;48.112;11.530;2023-02-15T00:51:50;24.10;;;13.60;;
35364;SDS011;21464;48.112;11.530;2023-02-15T00:54:16;14.87;;;12.93;;
35364;SDS011;21464;48.112;11.530;2023-02-15T00:56:42;14.47;;;12.23;;
35364;SDS011;21464;48.112;11.530;2023-02-15T00:59:09;37.07;;;13.27;;
35364;SDS011;21464;48.112;11.530;2023-02-15T01:01:35;26.63;;;12.53;;
35364;SDS011;21464;48.112;11.530;2023-02-15T01:04:01;16.17;;;12.50;;
35364;SDS011;21464;48.112;11.530;2023-02-15T01:06:29;14.33;;;11.80;;
35364;SDS011;21464;48.112;11.530;2023-02-15T01:08:55;13.93;;;11.93;;
35364;SDS011;21464;48.112;11.530;2023-02-15T01:11:22;15.37;;;12.50;;
35364;SDS011;21464;48.112;11.530;2023-02-15T01:13:54;16.80;;;12.50;;
35364;SDS011;21464;48.112;11.530;2023-02-15T01:16:22;25.80;;;11.87;;
35364;SDS011;21464;48.112;11.530;2023-02-15T01:18:49;15.50;;;11.17;;
35364;SDS011;21464;48.112;11.530;2023-02-15T01:21:17;16.43;;;11.90;;
35364;SDS011;21464;48.112;11.530;2023-02-15T01:23:45;12.60;;;11.20;;
35364;SDS011;21464;48.112;11.530;2023-02-15T01:26:12;12.57;;;11.00;;
35364;SDS011;21464;48.112;11.530;2023-02-15T01:28:39;13.03;;;11.63;;
35364;SDS011;21464;48.112;11.530;2023-02-15T01:31:09;12.77;;;10.73;;
35364;SDS011;21464;48.112;11.530;2023-02-15T01:33:38;12.60;;;10.90;;
35364;SDS011;21464;48.112;11.530;2023-02-15T01:36:05;12.03;;;10.70;;
35364;SDS011;21464;48.112;11.530;2023-02-15T01:38:31;12.23;;;10.33;;
35364;SDS011;21464;48.112;11.530;2023-02-15T01:40:58;17.03;;;10.63;;
35364;SDS011;21464;48.112;11.530;2023-02-15T01:43:46;15.70;;;10.67;;
35364;SDS011;21464;48.112;11.530;2023-02-15T01:46:15;14.83;;;10.50;;
35364;SDS011;21464;48.112;11.530;2023-02-15T01:48:50;11.43;;;9.90;;
35364;SDS011;21464;48.112;11.530;2023-02-15T01:51:21;17.53;;;10.23;;
35364;SDS011;21464;48.112;11.530;2023-02-15T01:53:51;19.97;;;10.10;;
35364;SDS011;21464;48.112;11.530;2023-02-15T01:56:32;18.87;;;11.20;;
35364;SDS011;21464;48.112;11.530;2023-02-15T01:59:02;62.60;;;10.50;;
35364;SDS011;21464;48.112;11.530;2023-02-15T02:01:32;11.57;;;10.17;;
35364;SDS011;21464;48.112;11.530;2023-02-15T02:04:02;11.23;;;10.13;;
35364;SDS011;21464;48.112;11.530;2023-02-15T02:06:35;10.17;;;9.10;;
35364;SDS011;21464;48.112;11.530;2023-02-15T02:09:02;27.27;;;10.37;;
35364;SDS011;21464;48.112;11.530;2023-02-15T02:11:29;10.83;;;9.73;;
35364;SDS011;21464;48.112;11.530;2023-02-15T02:13:56;10.63;;;9.40;;
35364;SDS011;21464;48.112;11.530;2023-02-15T02:35:25;10.80;;;9.70;;
35364;SDS011;21464;48.112;11.530;2023-02-15T02:38:08;10.70;;;9.60;;
35364;SDS011;21464;48.112;11.530;2023-02-15T02:43:34;14.90;;;9.50;;
35364;SDS011;21464;48.112;11.530;2023-02-15T02:46:17;14.63;;;9.73;;
35364;SDS011;21464;48.112;11.530;2023-02-15T02:48:46;11.67;;;10.47;;
35364;SDS011;21464;48.112;11.530;2023-02-15T02:51:14;37.83;;;10.97;;
35364;SDS011;21464;48.112;11.530;2023-02-15T02:53:48;10.93;;;9.80;;
35364;SDS011;21464;48.112;11.530;2023-02-15T02:56:56;10.33;;;9.33;;
35364;SDS011;21464;48.112;11.530;2023-02-15T02:59:16;12.07;;;8.97;;
35364;SDS011;21464;48.112;11.530;2023-02-15T03:01:52;10.73;;;9.73;;
35364;SDS011;21464;48.112;11.530;2023-02-15T03:04:25;11.47;;;9.53;;
35364;SDS011;21464;48.112;11.530;2023-02-15T03:06:59;14.60;;;9.27;;
35364;SDS011;21464;48.112;11.530;2023-02-15T03:09:49;14.37;;;9.47;;
35364;SDS011;21464;48.112;11.530;2023-02-15T03:12:19;19.83;;;10.00;;
35364;SDS011;21464;48.112;11.530;2023-02-15T03:14:56;62.33;;;10.60;;
35364;SDS011;21464;48.112;11.530;2023-02-15T03:17:25;18.27;;;9.90;;
35364;SDS011;21464;48.112;11.530;2023-02-15T03:19:54;73.30;;;10.70;;
35364;SDS011;21464;48.112;11.530;2023-02-15T03:23:06;21.60;;;11.37;;
35364;SDS011;21464;48.112;11.530;2023-02-15T03:25:19;22.93;;;10.40;;
35364;SDS011;21464;48.112;11.530;2023-02-15T03:27:53;19.43;;;10.87;;
35364;SDS011;21464;48.112;11.530;2023-02-15T03:30:25;27.03;;;9.97;;
35364;SDS011;21464;48.112;11.530;2023-02-15T03:32:54;27.97;;;9.50;;
35364;SDS011;21464;48.112;11.530;2023-02-15T03:35:24;61.30;;;10.90;;
35364;SDS011;21464;48.112;11.530;2023-02-15T03:37:57;56.67;;;10.07;;
35364;SDS011;21464;48.112;11.530;2023-02-15T03:40:33;19.77;;;11.23;;
35364;SDS011;21464;48.112;11.530;2023-02-15T03:43:36;127.30;;;11.93;;
35364;SDS011;21464;48.112;11.530;2023-02-15T03:48:55;94.60;;;10.80;;
35364;SDS011;21464;48.112;11.530;2023-02-15T03:51:26;103.50;;;11.10;;
35364;SDS011;21464;48.112;11.530;2023-02-15T03:54:03;36.10;;;9.67;;
35364;SDS011;21464;48.112;11.530;2023-02-15T03:57:01;13.33;;;10.47;;
35364;SDS011;21464;48.112;11.530;2023-02-15T03:59:45;45.10;;;9.60;;
35364;SDS011;21464;48.112;11.530;2023-02-15T04:05:12;50.63;;;10.97;;
35364;SDS011;21464;48.112;11.530;2023-02-15T04:07:39;27.30;;;10.60;;
35364;SDS011;21464;48.112;11.530;2023-02-15T04:10:05;40.33;;;10.60;;
35364;SDS011;21464;48.112;11.530;2023-02-15T04:12:50;45.10;;;10.63;;
35364;SDS011;21464;48.112;11.530;2023-02-15T04:15:17;64.50;;;10.20;;
35364;SDS011;21464;48.112;11.530;2023-02-15T04:18:04;31.30;;;11.27;;
35364;SDS011;21464;48.112;11.530;2023-02-15T04:20:31;37.73;;;10.60;;
35364;SDS011;21464;48.112;11.530;2023-02-15T04:23:16;21.07;;;10.30;;
35364;SDS011;21464;48.112;11.530;2023-02-15T04:26:03;76.27;;;10.33;;
35364;SDS011;21464;48.112;11.530;2023-02-15T04:28:33;52.33;;;10.67;;
35364;SDS011;21464;48.112;11.530;2023-02-15T04:30:59;20.80;;;10.60;;
35364;SDS011;21464;48.112;11.530;2023-02-15T04:33:25;56.77;;;11.37;;
35364;SDS011;21464;48.112;11.530;2023-02-15T04:35:51;75.23;;;11.77;;
35364;SDS011;21464;48.112;11.530;2023-02-15T04:38:18;102.57;;;12.30;;
35364;SDS011;21464;48.112;11.530;2023-02-15T04:40:44;20.83;;;10.90;;
35364;SDS011;21464;48.112;11.530;2023-02-15T04:43:10;21.83;;;10.77;;
35364;SDS011;21464;48.112;11.530;2023-02-15T04:45:36;12.20;;;10.27;;
35364;SDS011;21464;48.112;11.530;2023-02-15T04:48:03;17.10;;;10.00;;
35364;SDS011;21464;48.112;11.530;2023-02-15T04:50:29;14.47;;;10.23;;
35364;SDS011;21464;48.112;11.530;2023-02-15T04:52:55;12.97;;;10.57;;
35364;SDS011;21464;48.112;11.530;2023-02-15T04:55:21;12.63;;;11.10;;
35364;SDS011;21464;48.112;11.530;2023-02-15T04:57:47;13.73;;;11.17;;
35364;SDS011;21464;48.112;11.530;2023-02-15T05:00:14;29.10;;;11.00;;
35364;SDS011;21464;48.112;11.530;2023-02-15T05:02:40;21.33;;;10.77;;
35364;SDS011;21464;48.112;11.530;2023-02-15T05:05:06;18.73;;;10.70;;
35364;SDS011;21464;48.112;11.530;2023-02-15T05:07:35;29.37;;;11.30;;
35364;SDS011;21464;48.112;11.530;2023-02-15T05:10:01;28.00;;;14.43;;
35364;SDS011;21464;48.112;11.530;2023-02-15T05:12:27;19.47;;;13.00;;
35364;SDS011;21464;48.112;11.530;2023-02-15T05:14:54;15.80;;;11.40;;
35364;SDS011;21464;48.112;11.530;2023-02-15T05:17:20;17.33;;;12.70;;
35364;SDS011;21464;48.112;11.530;2023-02-15T05:19:46;17.07;;;11.47;;
35364;SDS011;21464;48.112;11.530;2023-02-15T05:22:12;29.00;;;13.30;;
35364;SDS011;21464;48.112;11.530;2023-02-15T05:24:38;27.67;;;13.63;;
35364;SDS011;21464;48.112;11.530;2023-02-15T05:27:23;28.83;;;12.97;;
35364;SDS011;21464;48.112;11.530;2023-02-15T05:30:09;30.67;;;12.43;;
35364;SDS011;21464;48.112;11.530;2023-02-15T05:32:37;23.63;;;12.57;;
35364;SDS011;21464;48.112;11.530;2023-02-15T05:35:05;15.90;;;12.53;;
35364;SDS011;21464;48.112;11.530;2023-02-15T05:37:32;17.43;;;11.93;;
35364;SDS011;21464;48.112;11.530;2023-02-15T05:39:58;15.77;;;11.70;;
35364;SDS011;21464;48.112;11.530;2023-02-15T05:42:24;22.60;;;11.97;;
35364;SDS011;21464;48.112;11.530;2023-02-15T05:44:50;23.57;;;12.10;;
35364;SDS011;21464;48.112;11.530;2023-02-15T05:47:16;17.23;;;12.30;;
35364;SDS011;21464;48.112;11.530;2023-02-15T05:49:43;20.77;;;11.57;;
35364;SDS011;21464;48.112;11.530;2023-02-15T05:52:09;14.17;;;11.80;;
35364;SDS011;21464;48.112;11.530;2023-02-15T05:54:35;18.30;;;12.10;;
35364;SDS011;21464;48.112;11.530;2023-02-15T05:57:01;15.80;;;11.63;;
35364;SDS011;21464;48.112;11.530;2023-02-15T05:59:28;13.63;;;12.00;;
35364;SDS011;21464;48.112;11.530;2023-02-15T06:01:54;25.53;;;12.03;;
35364;SDS011;21464;48.112;11.530;2023-02-15T06:04:20;17.53;;;11.87;;
35364;SDS011;21464;48.112;11.530;2023-02-15T06:06:46;23.50;;;12.00;;
35364;SDS011;21464;48.112;11.530;2023-02-15T06:09:12;23.17;;;12.63;;
35364;SDS011;21464;48.112;11.530;2023-02-15T06:11:39;19.43;;;13.03;;
35364;SDS011;21464;48.112;11.530;2023-02-15T06:14:05;24.10;;;13.17;;
35364;SDS011;21464;48.112;11.530;2023-02-15T06:16:31;33.20;;;13.33;;
35364;SDS011;21464;48.112;11.530;2023-02-15T06:18:58;16.90;;;11.87;;
35364;SDS011;21464;48.112;11.530;2023-02-15T06:21:25;14.50;;;12.37;;
35364;SDS011;21464;48.112;11.530;2023-02-15T06:23:51;18.53;;;12.87;;
35364;SDS011;21464;48.112;11.530;2023-02-15T06:26:17;15.80;;;12.63;;
35364;SDS011;21464;48.112;11.530;2023-02-15T06:28:44;17.97;;;13.13;;
35364;SDS011;21464;48.112;11.530;2023-02-15T06:31:10;28.43;;;12.67;;
35364;SDS011;21464;48.112;11.530;2023-02-15T06:33:36;29.03;;;12.83;;
35364;SDS011;21464;48.112;11.530;2023-02-15T06:36:03;19.27;;;12.10;;
35364;SDS011;21464;48.112;11.530;2023-02-15T06:38:29;22.37;;;11.97;;
35364;SDS011;21464;48.112;11.530;2023-02-15T06:40:56;29.87;;;13.03;;
35364;SDS011;21464;48.112;11.530;2023-02-15T06:43:22;34.00;;;12.97;;
35364;SDS011;21464;48.112;11.530;2023-02-15T06:45:48;23.37;;;12.90;;
35364;SDS011;21464;48.112;11.530;2023-02-15T06:48:14;26.37;;;13.10;;
35364;SDS011;21464;48.112;11.530;2023-02-15T06:50:40;31.00;;;14.00;;
35364;SDS011;21464;48.112;11.530;2023-02-15T06:53:07;15.77;;;12.43;;
35364;SDS011;21464;48.112;11.530;2023-02-15T06:55:33;27.93;;;13.43;;
35364;SDS011;21464;48.112;11.530;2023-02-15T06:57:59;17.20;;;12.57;;
35364;SDS011;21464;48.112;11.530;2023-02-15T07:00:25;26.57;;;12.23;;
35364;SDS011;21464;48.112;11.530;2023-02-15T07:02:55;15.33;;;12.00;;
35364;SDS011;21464;48.112;11.530;2023-02-15T07:05:24;16.63;;;12.33;;
35364;SDS011;21464;48.112;11.530;2023-02-15T07:07:57;17.03;;;12.87;;
35364;SDS011;21464;48.112;11.530;2023-02-15T07:10:23;15.37;;;12.03;;
35364;SDS011;21464;48.112;11.530;2023-02-15T07:12:51;15.37;;;12.13;;
35364;SDS011;21464;48.112;11.530;2023-02-15T07:15:17;14.50;;;11.90;;
35364;SDS011;21464;48.112;11.530;2023-02-15T07:17:46;14.07;;;11.43;;
35364;SDS011;21464;48.112;11.530;2023-02-15T07:20:14;14.40;;;11.77;;
35364;SDS011;21464;48.112;11.530;2023-02-15T07:22:42;19.00;;;13.27;;
35364;SDS011;21464;48.112;11.530;2023-02-15T07:25:09;15.37;;;12.67;;
35364;SDS011;21464;48.112;11.530;2023-02-15T07:27:36;15.37;;;12.47;;
35364;SDS011;21464;48.112;11.530;2023-02-15T07:30:03;15.53;;;13.10;;
35364;SDS011;21464;48.112;11.530;2023-02-15T07:32:30;15.23;;;13.30;;
35364;SDS011;21464;48.112;11.530;2023-02-15T07:34:57;16.23;;;13.93;;
35364;SDS011;21464;48.112;11.530;2023-02-15T07:37:24;15.67;;;13.23;;
35364;SDS011;21464;48.112;11.530;2023-02-15T07:39:51;15.30;;;13.57;;
35364;SDS011;21464;48.112;11.530;2023-02-15T07:42:17;16.10;;;13.27;;
35364;SDS011;21464;48.112;11.530;2023-02-15T07:44:46;18.07;;;14.30;;
35364;SDS011;21464;48.112;11.530;2023-02-15T07:47:12;19.33;;;13.93;;
35364;SDS011;21464;48.112;11.530;2023-02-15T07:49:39;16.97;;;13.70;;
35364;SDS011;21464;48.112;11.530;2023-02-15T07:52:05;14.43;;;12.93;;
35364;SDS011;21464;48.112;11.530;2023-02-15T07:54:31;16.60;;;13.80;;
35364;SDS011;21464;48.112;11.530;2023-02-15T07:56:58;21.47;;;14.57;;
35364;SDS011;21464;48.112;11.530;2023-02-15T07:59:24;16.80;;;13.17;;
35364;SDS011;21464;48.112;11.530;2023-02-15T08:01:50;16.70;;;13.63;;
35364;SDS011;21464;48.112;11.530;2023-02-15T08:04:18;15.97;;;13.27;;
35364;SDS011;21464;48.112;11.530;2023-02-15T08:06:44;17.33;;;14.03;;
35364;SDS011;21464;48.112;11.530;2023-02-15T08:09:11;14.30;;;12.80;;
35364;SDS011;21464;48.112;11.530;2023-02-15T08:11:37;15.73;;;13.10;;
35364;SDS011;21464;48.112;11.530;2023-02-15T08:14:07;14.87;;;13.20;;
35364;SDS011;21464;48.112;11.530;2023-02-15T08:21:47;17.60;;;13.10;;
35364;SDS011;21464;48.112;11.530;2023-02-15T08:24:23;17.07;;;13.43;;
35364;SDS011;21464;48.112;11.530;2023-02-15T08:26:50;17.83;;;14.23;;
35364;SDS011;21464;48.112;11.530;2023-02-15T08:29:18;20.27;;;14.53;;
35364;SDS011;21464;48.112;11.530;2023-02-15T08:31:47;16.80;;;14.20;;
35364;SDS011;21464;48.112;11.530;2023-02-15T08:34:14;16.00;;;13.80;;
35364;SDS011;21464;48.112;11.530;2023-02-15T08:36:42;17.20;;;13.90;;
35364;SDS011;21464;48.112;11.530;2023-02-15T08:39:11;16.63;;;14.40;;
35364;SDS011;21464;48.112;11.530;2023-02-15T08:41:38;15.93;;;13.63;;
35364;SDS011;21464;48.112;11.530;2023-02-15T08:44:06;16.90;;;13.63;;
35364;SDS011;21464;48.112;11.530;2023-02-15T08:46:34;16.40;;;13.73;;
35364;SDS011;21464;48.112;11.530;2023-02-15T08:49:02;15.33;;;13.63;;
35364;SDS011;21464;48.112;11.530;2023-02-15T08:51:29;14.30;;;12.40;;
35364;SDS011;21464;48.112;11.530;2023-02-15T08:53:58;16.67;;;14.40;;
35364;SDS011;21464;48.112;11.530;2023-02-15T08:56:26;15.80;;;13.57;;
35364;SDS011;21464;48.112;11.530;2023-02-15T08:58:54;16.33;;;14.03;;
35364;SDS011;21464;48.112;11.530;2023-02-15T09:01:21;18.20;;;14.27;;
35364;SDS011;21464;48.112;11.530;2023-02-15T09:03:50;18.50;;;14.03;;
35364;SDS011;21464;48.112;11.530;2023-02-15T09:06:21;16.13;;;13.40;;
35364;SDS011;21464;48.112;11.530;2023-02-15T09:08:48;17.47;;;13.73;;
35364;SDS011;21464;48.112;11.530;2023-02-15T09:11:16;17.07;;;14.27;;
35364;SDS011;21464;48.112;11.530;2023-02-15T09:13:49;17.33;;;14.20;;
35364;SDS011;21464;48.112;11.530;2023-02-15T09:16:18;16.40;;;13.73;;
35364;SDS011;21464;48.112;11.530;2023-02-15T09:18:45;18.00;;;14.97;;
35364;SDS011;21464;48.112;11.530;2023-02-15T09:21:12;17.77;;;14.83;;
35364;SDS011;21464;48.112;11.530;2023-02-15T09:23:41;18.03;;;13.83;;
35364;SDS011;21464;48.112;11.530;2023-02-15T09:26:10;17.93;;;15.03;;
35364;SDS011;21464;48.112;11.530;2023-02-15T09:28:44;18.30;;;15.23;;
35364;SDS011;21464;48.112;11.530;2023-02-15T09:31:12;21.23;;;15.90;;
35364;SDS011;21464;48.112;11.530;2023-02-15T09:33:41;19.77;;;15.13;;
35364;SDS011;21464;48.112;11.530;2023-02-15T09:36:18;20.37;;;14.97;;
35364;SDS011;21464;48.112;11.530;2023-02-15T09:38:48;23.43;;;17.07;;
35364;SDS011;21464;48.112;11.530;2023-02-15T09:44:14;22.77;;;15.87;;
35364;SDS011;21464;48.112;11.530;2023-02-15T09:52:24;23.40;;;16.10;;
35364;SDS011;21464;48.112;11.530;2023-02-15T09:57:23;20.83;;;15.47;;
35364;SDS011;21464;48.112;11.530;2023-02-15T10:02:44;19.70;;;15.67;;
35364;SDS011;21464;48.112;11.530;2023-02-15T10:05:37;26.83;;;16.13;;
35364;SDS011;21464;48.112;11.530;2023-02-15T10:19:37;20.27;;;14.63;;
35364;SDS011;21464;48.112;11.530;2023-02-15T10:22:18;17.97;;;15.27;;
35364;SDS011;21464;48.112;11.530;2023-02-15T10:27:26;20.03;;;15.60;;
35364;SDS011;21464;48.112;11.530;2023-02-15T10:30:01;17.07;;;14.57;;
35364;SDS011;21464;48.112;11.530;2023-02-15T10:33:20;20.90;;;15.43;;
35364;SDS011;21464;48.112;11.530;2023-02-15T10:35:38;19.50;;;14.60;;
35364;SDS011;21464;48.112;11.530;2023-02-15T10:54:49;25.23;;;16.50;;
35364;SDS011;21464;48.112;11.530;2023-02-15T11:08:10;21.87;;;16.17;;
35364;SDS011;21464;48.112;11.530;2023-02-15T11:10:44;24.30;;;16.90;;
35364;SDS011;21464;48.112;11.530;2023-02-15T11:13:44;24.27;;;16.20;;
35364;SDS011;21464;48.112;11.530;2023-02-15T11:16:16;19.03;;;15.90;;
35364;SDS011;21464;48.112;11.530;2023-02-15T11:18:55;18.90;;;16.17;;
35364;SDS011;21464;48.112;11.530;2023-02-15T11:21:31;20.93;;;15.87;;
35364;SDS011;21464;48.112;11.530;2023-02-15T11:24:13;21.03;;;15.53;;
35364;SDS011;21464;48.112;11.530;2023-02-15T11:26:42;23.13;;;16.73;;
35364;SDS011;21464;48.112;11.530;2023-02-15T11:29:12;20.77;;;15.67;;
35364;SDS011;21464;48.112;11.530;2023-02-15T11:31:43;19.60;;;16.43;;
35364;SDS011;21464;48.112;11.530;2023-02-15T11:34:26;22.60;;;16.23;;
35364;SDS011;21464;48.112;11.530;2023-02-15T11:36:58;20.10;;;15.97;;
35364;SDS011;21464;48.112;11.530;2023-02-15T11:39:26;20.67;;;16.13;;
35364;SDS011;21464;48.112;11.530;2023-02-15T11:41:55;20.23;;;16.37;;
35364;SDS011;21464;48.112;11.530;2023-02-15T11:44:26;20.73;;;16.07;;
35364;SDS011;21464;48.112;11.530;2023-02-15T11:46:57;17.30;;;15.23;;
35364;SDS011;21464;48.112;11.530;2023-02-15T11:49:29;17.20;;;14.37;;
35364;SDS011;21464;48.112;11.530;2023-02-15T11:51:57;20.53;;;15.60;;
35364;SDS011;21464;48.112;11.530;2023-02-15T11:54:26;21.33;;;15.17;;
35364;SDS011;21464;48.112;11.530;2023-02-15T11:56:59;20.97;;;14.90;;
35364;SDS011;21464;48.112;11.530;2023-02-15T11:59:49;18.30;;;14.70;;
35364;SDS011;21464;48.112;11.530;2023-02-15T12:02:19;19.90;;;16.10;;
35364;SDS011;21464;48.112;11.530;2023-02-15T12:04:48;20.23;;;16.13;;
35364;SDS011;21464;48.112;11.530;2023-02-15T12:07:19;21.97;;;16.33;;
35364;SDS011;21464;48.112;11.530;2023-02-15T12:12:31;23.93;;;16.07;;
35364;SDS011;21464;48.112;11.530;2023-02-15T12:14:59;22.73;;;16.33;;
35364;SDS011;21464;48.112;11.530;2023-02-15T12:17:32;24.40;;;16.10;;
35364;SDS011;21464;48.112;11.530;2023-02-15T12:20:01;20.33;;;15.55;;
35364;SDS011;21464;48.112;11.530;2023-02-15T12:22:31;20.98;;;15.77;;
35364;SDS011;21464;48.112;11.530;2023-02-15T12:24:59;25.00;;;17.20;;
35364;SDS011;21464;48.112;11.530;2023-02-15T12:27:30;20.35;;;17.08;;
35364;SDS011;21464;48.112;11.530;2023-02-15T12:32:58;23.52;;;16.25;;
35364;SDS011;21464;48.112;11.530;2023-02-15T12:35:31;22.80;;;19.10;;
35364;SDS011;21464;48.112;11.530;2023-02-15T12:38:00;24.67;;;16.88;;
35364;SDS011;21464;48.112;11.530;2023-02-15T12:40:31;18.13;;;15.95;;
35364;SDS011;21464;48.112;11.530;2023-02-15T12:42:59;19.75;;;15.90;;
35364;SDS011;21464;48.112;11.530;2023-02-15T12:45:27;19.80;;;15.43;;
35364;SDS011;21464;48.112;11.530;2023-02-15T12:50:40;18.33;;;15.73;;
35364;SDS011;21464;48.112;11.530;2023-02-15T12:53:53;21.63;;;15.48;;
35364;SDS011;21464;48.112;11.530;2023-02-15T12:55:59;17.13;;;14.80;;
35364;SDS011;21464;48.112;11.530;2023-02-15T12:58:30;18.55;;;16.10;;
35364;SDS011;21464;48.112;11.530;2023-02-15T13:03:37;19.40;;;15.68;;
35364;SDS011;21464;48.112;11.530;2023-02-15T13:06:12;17.10;;;15.35;;
35364;SDS011;21464;48.112;11.530;2023-02-15T13:08:44;16.95;;;15.25;;
35364;SDS011;21464;48.112;11.530;2023-02-15T13:11:12;17.83;;;16.08;;
35364;SDS011;21464;48.112;11.530;2023-02-15T13:16:33;16.65;;;15.05;;
35364;SDS011;21464;48.112;11.530;2023-02-15T13:19:04;18.05;;;15.05;;
35364;SDS011;21464;48.112;11.530;2023-02-15T13:21:35;16.48;;;14.80;;
35364;SDS011;21464;48.112;11.530;2023-02-15T13:24:10;17.55;;;15.48;;
35364;SDS011;21464;48.112;11.530;2023-02-15T13:26:59;20.23;;;17.05;;
35364;SDS011;21464;48.112;11.530;2023-02-15T13:29:27;18.33;;;15.18;;
35364;SDS011;21464;48.112;11.530;2023-02-15T13:31:55;19.67;;;15.35;;
35364;SDS011;21464;48.112;11.530;2023-02-15T13:37:15;16.70;;;15.07;;
35364;SDS011;21464;48.112;11.530;2023-02-15T13:42:27;17.75;;;14.35;;
35364;SDS011;21464;48.112;11.530;2023-02-15T13:56:28;15.85;;;14.25;;
35364;SDS011;21464;48.112;11.530;2023-02-15T14:01:55;16.17;;;13.48;;
35364;SDS011;21464;48.112;11.530;2023-02-15T14:16:03;15.38;;;13.88;;
35364;SDS011;21464;48.112;11.530;2023-02-15T14:21:29;15.90;;;14.20;;
35364;SDS011;21464;48.112;11.530;2023-02-15T14:24:06;16.88;;;14.90;;
35364;SDS011;21464;48.112;11.530;2023-02-15T14:32:46;15.88;;;13.93;;
35364;SDS011;21464;48.112;11.530;2023-02-15T14:35:29;15.95;;;14.32;;
35364;SDS011;21464;48.112;11.530;2023-02-15T14:38:01;15.30;;;12.90;;
35364;SDS011;21464;48.112;11.530;2023-02-15T14:46:55;15.82;;;14.13;;
35364;SDS011;21464;48.112;11.530;2023-02-15T14:49:09;16.38;;;13.57;;
35364;SDS011;21464;48.112;11.530;2023-02-15T14:54:09;15.73;;;13.60;;
35364;SDS011;21464;48.112;11.530;2023-02-15T14:56:36;14.80;;;13.18;;
35364;SDS011;21464;48.112;11.530;2023-02-15T15:01:37;15.75;;;13.10;;
35364;SDS011;21464;48.112;11.530;2023-02-15T15:04:55;14.98;;;13.25;;
35364;SDS011;21464;48.112;11.530;2023-02-15T15:09:39;18.02;;;14.20;;
35364;SDS011;21464;48.112;11.530;2023-02-15T15:12:15;16.42;;;13.30;;
35364;SDS011;21464;48.112;11.530;2023-02-15T15:14:47;16.58;;;13.55;;
35364;SDS011;21464;48.112;11.530;2023-02-15T15:20:00;17.00;;;14.10;;
35364;SDS011;21464;48.112;11.530;2023-02-15T15:22:30;17.92;;;14.07;;
35364;SDS011;21464;48.112;11.530;2023-02-15T15:24:58;14.65;;;13.15;;
35364;SDS011;21464;48.112;11.530;2023-02-15T15:49:57;16.40;;;14.68;;
35364;SDS011;21464;48.112;11.530;2023-02-15T15:52:24;16.02;;;14.15;;
35364;SDS011;21464;48.112;11.530;2023-02-15T15:54:56;16.17;;;13.70;;
35364;SDS011;21464;48.112;11.530;2023-02-15T15:57:38;19.25;;;15.25;;
35364;SDS011;21464;48.112;11.530;2023-02-15T16:00:16;20.83;;;15.02;;
35364;SDS011;21464;48.112;11.530;2023-02-15T16:02:49;18.05;;;14.30;;
35364;SDS011;21464;48.112;11.530;2023-02-15T16:05:16;23.65;;;15.07;;
35364;SDS011;21464;48.112;11.530;2023-02-15T16:07:42;20.17;;;15.13;;
35364;SDS011;21464;48.112;11.530;2023-02-15T16:10:22;20.33;;;15.43;;
35364;SDS011;21464;48.112;11.530;2023-02-15T16:12:52;19.90;;;14.88;;
35364;SDS011;21464;48.112;11.530;2023-02-15T16:15:23;17.83;;;15.02;;
35364;SDS011;21464;48.112;11.530;2023-02-15T16:18:13;20.73;;;14.10;;
35364;SDS011;21464;48.112;11.530;2023-02-15T16:20:42;17.90;;;14.95;;
35364;SDS011;21464;48.112;11.530;2023-02-15T16:28:53;19.17;;;14.68;;
35364;SDS011;21464;48.112;11.530;2023-02-15T16:31:20;18.83;;;16.15;;
35364;SDS011;21464;48.112;11.530;2023-02-15T16:33:53;21.83;;;15.98;;
35364;SDS011;21464;48.112;11.530;2023-02-15T16:36:22;18.75;;;15.98;;
35364;SDS011;21464;48.112;11.530;2023-02-15T16:43:51;18.40;;;16.40;;
35364;SDS011;21464;48.112;11.530;2023-02-15T16:46:32;19.85;;;16.67;;
35364;SDS011;21464;48.112;11.530;2023-02-15T16:49:00;19.00;;;16.55;;
35364;SDS011;21464;48.112;11.530;2023-02-15T16:51:29;19.67;;;16.30;;
35364;SDS011;21464;48.112;11.530;2023-02-15T16:53:57;20.08;;;17.83;;
35364;SDS011;21464;48.112;11.530;2023-02-15T16:56:30;24.35;;;18.85;;
35364;SDS011;21464;48.112;11.530;2023-02-15T16:58:56;22.15;;;19.33;;
35364;SDS011;21464;48.112;11.530;2023-02-15T17:01:24;23.50;;;19.15;;
35364;SDS011;21464;48.112;11.530;2023-02-15T17:06:38;21.83;;;18.67;;
35364;SDS011;21464;48.112;11.530;2023-02-15T17:09:13;23.05;;;18.70;;
35364;SDS011;21464;48.112;11.530;2023-02-15T17:11:44;25.60;;;18.70;;
35364;SDS011;21464;48.112;11.530;2023-02-15T17:14:11;24.70;;;18.97;;
35364;SDS011;21464;48.112;11.530;2023-02-15T17:16:43;24.67;;;19.45;;
35364;SDS011;21464;48.112;11.530;2023-02-15T17:19:22;23.77;;;18.67;;
35364;SDS011;21464;48.112;11.530;2023-02-15T17:21:57;24.13;;;19.27;;
35364;SDS011;21464;48.112;11.530;2023-02-15T17:24:32;25.27;;;19.17;;
35364;SDS011;21464;48.112;11.530;2023-02-15T17:27:06;22.08;;;18.17;;
35364;SDS011;21464;48.112;11.530;2023-02-15T17:29:38;23.13;;;19.00;;
35364;SDS011;21464;48.112;11.530;2023-02-15T17:32:11;21.55;;;17.70;;
35364;SDS011;21464;48.112;11.530;2023-02-15T17:37:10;21.27;;;17.67;;
35364;SDS011;21464;48.112;11.530;2023-02-15T17:39:38;20.33;;;17.58;;
35364;SDS011;21464;48.112;11.530;2023-02-15T17:42:06;20.88;;;17.58;;
35364;SDS011;21464;48.112;11.530;2023-02-15T17:44:32;20.23;;;18.13;;